createdAt,value
2022-11-16T00:01:34.105Z,99970.73
2022-11-16T00:04:07.470Z,99964.03
2022-11-16T00:06:41.459Z,99961.70
2022-11-16T00:09:23.764Z,99957.32
2022-11-16T00:12:04.849Z,99948.88
2022-11-16T00:14:38.835Z,99946.46
2022-11-16T00:17:11.884Z,99947.89
2022-11-16T00:19:45.261Z,99946.61
2022-11-16T00:22:19.002Z,99942.37
2022-11-16T00:24:52.021Z,99946.27
2022-11-16T00:27:25.100Z,99932.84
2022-11-16T00:30:00.020Z,99931.55
2022-11-16T00:32:33.814Z,99929.73
2022-11-16T00:35:07.959Z,99930.37
2022-11-16T00:37:41.263Z,99923.95
2022-11-16T00:40:14.909Z,99925.88
2022-11-16T00:42:48.171Z,99929.52
2022-11-16T00:45:21.193Z,99920.59
2022-11-16T00:48:00.164Z,99913.92
2022-11-16T00:50:29.434Z,99895.36
2022-11-16T00:53:02.921Z,99894.36
2022-11-16T00:55:37.973Z,99894.66
2022-11-16T00:58:11.330Z,99888.88
2022-11-16T01:00:46.602Z,99886.53
2022-11-16T01:03:20.131Z,99878.87
2022-11-16T01:05:53.266Z,99873.63
2022-11-16T01:08:26.634Z,99863.39
2022-11-16T01:11:01.592Z,99865.10
2022-11-16T01:13:35.204Z,99862.60
2022-11-16T01:16:09.044Z,99851.69
2022-11-16T01:18:42.150Z,99859.81
2022-11-16T01:21:15.210Z,99848.53
2022-11-16T01:23:48.388Z,99858.56
2022-11-16T01:26:21.970Z,99842.12
2022-11-16T01:28:55.026Z,99846.39
2022-11-16T01:31:29.073Z,99844.09
2022-11-16T01:34:02.584Z,99833.83
2022-11-16T01:36:37.525Z,99835.00
2022-11-16T01:39:12.703Z,99825.89
2022-11-16T01:41:48.044Z,99821.56
2022-11-16T01:44:41.093Z,99801.81
2022-11-16T01:47:18.491Z,99806.97
2022-11-16T01:50:05.306Z,99802.87
2022-11-16T01:52:44.563Z,99792.26
2022-11-16T01:55:19.210Z,99780.97
2022-11-16T01:58:07.625Z,99787.94
2022-11-16T02:00:42.907Z,99787.81
2022-11-16T02:03:28.347Z,99791.55
2022-11-16T02:06:24.059Z,99797.22
2022-11-16T02:09:58.556Z,99789.64
2022-11-16T02:12:55.565Z,99789.66
2022-11-16T02:15:37.674Z,99796.48
2022-11-16T02:18:35.724Z,99792.28
2022-11-16T02:21:26.061Z,99778.14
2022-11-16T02:24:29.127Z,99773.66
2022-11-16T02:27:09.697Z,99779.56
2022-11-16T02:29:49.601Z,99790.78
2022-11-16T02:32:45.328Z,99783.59
2022-11-16T02:35:31.911Z,99774.47
2022-11-16T02:38:23.015Z,99780.63
2022-11-16T02:41:12.058Z,99773.18
2022-11-16T02:43:50.835Z,99782.59
2022-11-16T02:46:33.938Z,99779.38
2022-11-16T02:49:12.487Z,99781.30
2022-11-16T02:51:50.762Z,99782.72
2022-11-16T02:54:25.903Z,99777.34
2022-11-16T02:57:07.866Z,99774.11
2022-11-16T02:59:45.640Z,99772.55
2022-11-16T03:02:50.147Z,99762.39
2022-11-16T03:05:34.827Z,99761.77
2022-11-16T03:08:37.356Z,99760.21
2022-11-16T03:11:13.515Z,99760.73
2022-11-16T03:13:48.115Z,99758.92
2022-11-16T03:16:38.170Z,99755.33
2022-11-16T03:19:18.469Z,99755.59
2022-11-16T03:22:09.679Z,99745.55
2022-11-16T03:24:43.385Z,99749.18
2022-11-16T03:27:38.975Z,99740.17
2022-11-16T03:30:19.025Z,99739.11
2022-11-16T03:33:11.854Z,99732.93
2022-11-16T03:35:51.809Z,99733.31
2022-11-16T03:38:27.869Z,99724.56
2022-11-16T03:41:04.454Z,99732.81
2022-11-16T03:43:38.832Z,99720.47
2022-11-16T03:46:11.292Z,99715.45
2022-11-16T03:48:44.893Z,99717.88
2022-11-16T03:51:19.739Z,99705.62
2022-11-16T03:53:52.733Z,99709.38
2022-11-16T03:56:26.375Z,99702.80
2022-11-16T03:58:59.714Z,99705.89
2022-11-16T04:01:35.041Z,99705.22
2022-11-16T04:04:09.973Z,99704.45
2022-11-16T04:07:00.775Z,99704.98
2022-11-16T04:09:52.266Z,99687.08
2022-11-16T04:12:43.427Z,99689.64
2022-11-16T04:15:34.650Z,99687.80
2022-11-16T04:18:27.179Z,99694.00
2022-11-16T04:21:17.813Z,99694.13
2022-11-16T04:24:09.250Z,99691.16
2022-11-16T04:27:06.029Z,99685.88
2022-11-16T04:29:39.424Z,99681.61
2022-11-16T04:32:31.033Z,99674.66
2022-11-16T04:35:21.740Z,99673.75
2022-11-16T04:37:57.302Z,99668.72
2022-11-16T04:40:31.811Z,99666.78
2022-11-16T04:43:06.327Z,99663.53
2022-11-16T04:45:59.476Z,99663.91
2022-11-16T04:48:34.572Z,99661.58
2022-11-16T04:51:08.509Z,99675.59
2022-11-16T04:53:42.173Z,99673.15
2022-11-16T04:56:19.712Z,99679.80
2022-11-16T04:58:52.876Z,99671.03
2022-11-16T05:01:27.859Z,99663.54
2022-11-16T05:04:00.738Z,99659.30
2022-11-16T05:06:34.162Z,99657.37
2022-11-16T05:09:07.317Z,99651.33
2022-11-16T05:11:40.819Z,99651.17
2022-11-16T05:14:13.870Z,99651.41
2022-11-16T05:16:47.901Z,99658.99
2022-11-16T05:19:38.619Z,99649.72
2022-11-16T05:22:11.809Z,99654.08
2022-11-16T05:24:45.901Z,99657.95
2022-11-16T05:27:21.113Z,99658.75
2022-11-16T05:29:55.329Z,99646.74
2022-11-16T05:32:29.670Z,99649.84
2022-11-16T05:35:04.450Z,99649.56
2022-11-16T05:37:38.458Z,99641.67
2022-11-16T05:40:13.177Z,99639.85
2022-11-16T05:42:53.914Z,99641.38
2022-11-16T05:45:27.194Z,99640.58
2022-11-16T05:48:01.283Z,99637.52
2022-11-16T05:50:38.536Z,99635.30
2022-11-16T05:53:12.300Z,99643.04
2022-11-16T05:55:46.701Z,99636.23
2022-11-16T05:58:19.835Z,99633.08
2022-11-16T06:00:54.789Z,99630.87
2022-11-16T06:03:32.599Z,99635.86
2022-11-16T06:06:06.677Z,99633.27
2022-11-16T06:08:40.541Z,99635.04
2022-11-16T06:11:15.640Z,99631.12
2022-11-16T06:13:49.207Z,99623.62
2022-11-16T06:16:22.485Z,99615.47
2022-11-16T06:18:56.636Z,99610.55
2022-11-16T06:21:29.565Z,99615.83
2022-11-16T06:24:04.013Z,99612.31
2022-11-16T06:26:37.863Z,99607.27
2022-11-16T06:29:10.869Z,99602.86
2022-11-16T06:31:45.264Z,99599.59
2022-11-16T06:34:18.777Z,99598.92
2022-11-16T06:36:52.247Z,99596.95
2022-11-16T06:39:25.909Z,99596.29
2022-11-16T06:41:59.320Z,99596.81
2022-11-16T06:44:33.537Z,99598.59
2022-11-16T06:47:07.138Z,99592.77
2022-11-16T06:49:40.512Z,99592.34
2022-11-16T06:52:16.551Z,99592.39
2022-11-16T06:54:49.800Z,99591.94
2022-11-16T06:57:22.814Z,99586.97
2022-11-16T06:59:56.054Z,99584.92
2022-11-16T07:02:29.432Z,99581.13
2022-11-16T07:05:05.118Z,99583.87
2022-11-16T07:07:39.141Z,99582.39
2022-11-16T07:10:13.180Z,99581.03
2022-11-16T07:12:47.051Z,99570.37
2022-11-16T07:15:21.163Z,99572.44
2022-11-16T07:17:54.081Z,99566.55
2022-11-16T07:20:28.232Z,99567.13
2022-11-16T07:23:07.140Z,99567.08
2022-11-16T07:25:40.863Z,99558.30
2022-11-16T07:28:13.803Z,99553.46
2022-11-16T07:30:47.113Z,99551.98
2022-11-16T07:33:21.587Z,99541.58
2022-11-16T07:36:10.251Z,99538.48
2022-11-16T07:38:43.709Z,99532.84
2022-11-16T07:41:19.608Z,99530.94
2022-11-16T07:43:57.347Z,99530.37
2022-11-16T07:46:48.404Z,99531.56
2022-11-16T07:49:11.120Z,99528.39
2022-11-16T07:51:58.744Z,99532.80
2022-11-16T07:54:42.722Z,99529.22
2022-11-16T07:57:16.506Z,99533.00
2022-11-16T07:59:50.053Z,99534.60
2022-11-16T08:02:23.211Z,99535.38
2022-11-16T08:04:56.955Z,99526.93
2022-11-16T08:07:31.838Z,99521.44
2022-11-16T08:10:06.971Z,99523.86
2022-11-16T08:12:39.339Z,99515.97
2022-11-16T08:15:14.477Z,99516.66
2022-11-16T08:17:47.508Z,99516.38
2022-11-16T08:20:22.419Z,99509.90
2022-11-16T08:23:01.910Z,99513.37
2022-11-16T08:25:36.593Z,99509.80
2022-11-16T08:28:09.569Z,99506.80
2022-11-16T08:30:43.118Z,99506.19
2022-11-16T08:33:16.168Z,99496.55
2022-11-16T08:35:50.329Z,99495.05
2022-11-16T08:38:24.159Z,99496.04
2022-11-16T08:40:58.173Z,99490.75
2022-11-16T08:43:32.970Z,99479.89
2022-11-16T08:46:05.829Z,99480.70
2022-11-16T08:48:39.559Z,99477.38
2022-11-16T08:51:18.119Z,99473.00
2022-11-16T08:53:57.636Z,99474.49
2022-11-16T08:56:30.965Z,99462.20
2022-11-16T08:59:04.466Z,99461.20
2022-11-16T09:01:38.407Z,99454.22
2022-11-16T09:04:12.230Z,99449.80
2022-11-16T09:06:46.084Z,99442.72
2022-11-16T09:09:30.668Z,99444.20
2022-11-16T09:12:03.534Z,99436.61
2022-11-16T09:14:37.009Z,99435.83
2022-11-16T09:17:12.295Z,99432.82
2022-11-16T09:19:45.059Z,99435.69
2022-11-16T09:22:18.377Z,99433.98
2022-11-16T09:24:51.276Z,99435.69
2022-11-16T09:27:24.756Z,99424.31
2022-11-16T09:29:57.860Z,99424.31
2022-11-16T09:32:31.199Z,99424.41
2022-11-16T09:35:04.305Z,99423.58
2022-11-16T09:37:37.322Z,99417.19
2022-11-16T09:40:12.749Z,99414.69
2022-11-16T09:43:09.141Z,99416.48
2022-11-16T09:46:04.870Z,99405.00
2022-11-16T09:48:39.700Z,99403.89
2022-11-16T09:51:16.013Z,99402.45
2022-11-16T09:54:04.466Z,99401.12
2022-11-16T09:56:40.304Z,99396.62
2022-11-16T09:59:30.908Z,99396.01
2022-11-16T10:02:29.035Z,99387.81
2022-11-16T10:05:24.001Z,99389.28
2022-11-16T10:08:17.704Z,99381.27
2022-11-16T10:11:17.452Z,99386.27
2022-11-16T10:14:04.150Z,99382.78
2022-11-16T10:16:55.033Z,99373.28
2022-11-16T10:19:57.942Z,99371.70
2022-11-16T10:22:45.282Z,99371.14
2022-11-16T10:25:24.413Z,99373.63
2022-11-16T10:28:48.183Z,99367.28
2022-11-16T10:31:40.371Z,99364.86
2022-11-16T10:34:19.644Z,99365.95
2022-11-16T10:36:55.928Z,99362.00
2022-11-16T10:39:29.093Z,99362.34
2022-11-16T10:42:07.799Z,99363.49
2022-11-16T10:45:12.826Z,99358.06
2022-11-16T10:47:51.644Z,99360.27
2022-11-16T10:50:51.580Z,99352.66
2022-11-16T10:53:34.904Z,99348.02
2022-11-16T10:56:40.294Z,99344.14
2022-11-16T10:59:16.805Z,99343.68
2022-11-16T11:01:57.018Z,99334.22
2022-11-16T11:04:33.025Z,99338.83
2022-11-16T11:07:38.111Z,99336.16
2022-11-16T11:10:30.954Z,99332.34
2022-11-16T11:13:15.122Z,99330.48
2022-11-16T11:15:49.080Z,99340.38
2022-11-16T11:18:30.903Z,99335.60
2022-11-16T11:21:11.392Z,99332.25
2022-11-16T11:23:52.615Z,99335.86
2022-11-16T11:26:42.327Z,99334.72
2022-11-16T11:29:33.155Z,99331.37
2022-11-16T11:32:24.221Z,99327.89
2022-11-16T11:34:56.297Z,99319.67
2022-11-16T11:37:36.076Z,99321.47
2022-11-16T11:40:22.072Z,99321.47
2022-11-16T11:42:59.172Z,99323.27
2022-11-16T11:45:51.519Z,99310.27
2022-11-16T11:48:38.040Z,99307.34
2022-11-16T11:51:24.726Z,99307.92
2022-11-16T11:54:02.234Z,99303.77
2022-11-16T11:56:35.871Z,99306.95
2022-11-16T11:59:10.377Z,99301.41
2022-11-16T12:01:55.484Z,99301.41
2022-11-16T12:04:47.902Z,99303.59
2022-11-16T12:07:54.768Z,99305.31
2022-11-16T12:10:41.070Z,99300.83
2022-11-16T12:13:58.249Z,99302.21
2022-11-16T12:16:47.532Z,99295.80
2022-11-16T12:19:31.058Z,99294.73
2022-11-16T12:22:25.060Z,99293.09
2022-11-16T12:25:37.701Z,99288.66
2022-11-16T12:28:30.452Z,99292.55
2022-11-16T12:31:42.839Z,99292.55
2022-11-16T12:34:33.420Z,99291.00
2022-11-16T12:37:28.952Z,99291.16
2022-11-16T12:40:21.441Z,99290.66
2022-11-16T12:43:24.892Z,99288.98
2022-11-16T12:46:37.267Z,99287.67
2022-11-16T12:49:44.816Z,99286.84
2022-11-16T12:52:37.154Z,99285.23
2022-11-16T12:55:35.820Z,99280.50
2022-11-16T12:58:22.524Z,99283.84
2022-11-16T13:01:18.674Z,99279.59
2022-11-16T13:04:13.115Z,99283.99
2022-11-16T13:06:51.710Z,99284.80
2022-11-16T13:09:30.652Z,99275.95
2022-11-16T13:12:12.906Z,99276.30
2022-11-16T13:14:49.292Z,99274.08
2022-11-16T13:17:29.645Z,99270.09
2022-11-16T13:20:14.539Z,99268.72
2022-11-16T13:22:51.805Z,99267.34
2022-11-16T13:25:34.663Z,99271.66
2022-11-16T13:28:33.468Z,99268.55
2022-11-16T13:31:17.769Z,99264.27
2022-11-16T13:33:56.411Z,99259.38
2022-11-16T13:36:45.569Z,99271.34
2022-11-16T13:39:23.169Z,99261.73
2022-11-16T13:42:17.193Z,99259.47
2022-11-16T13:44:51.658Z,99263.22
2022-11-16T13:47:30.752Z,99267.38
2022-11-16T13:50:07.261Z,99267.21
2022-11-16T13:55:35.328Z,99265.17
2022-11-16T13:58:12.967Z,99258.05
2022-11-16T14:01:02.382Z,99255.70
2022-11-16T14:03:39.384Z,99252.10
2022-11-16T14:06:32.138Z,99261.04
2022-11-16T14:09:06.970Z,99253.16
2022-11-16T14:11:41.877Z,99265.02
2022-11-16T14:14:36.337Z,99251.64
2022-11-16T14:17:09.922Z,99256.34
2022-11-16T14:19:52.282Z,99250.09
2022-11-16T14:22:35.978Z,99248.30
2022-11-16T14:25:15.699Z,99252.53
2022-11-16T14:28:14.181Z,99251.06
2022-11-16T14:31:03.309Z,99245.20
2022-11-16T14:33:38.296Z,99242.19
2022-11-16T14:36:12.598Z,99244.88
2022-11-16T14:38:45.977Z,99243.99
2022-11-16T14:41:24.436Z,99252.59
2022-11-16T14:43:59.141Z,99247.26
2022-11-16T14:46:37.010Z,99250.24
2022-11-16T14:49:14.738Z,99256.66
2022-11-16T14:51:58.613Z,99254.05
2022-11-16T14:54:44.946Z,99253.67
2022-11-16T14:57:26.019Z,99252.38
2022-11-16T15:00:23.218Z,99254.55
2022-11-16T15:03:02.273Z,99259.75
2022-11-16T15:05:36.873Z,99255.77
2022-11-16T15:08:17.017Z,99251.29
2022-11-16T15:10:52.729Z,99253.09
2022-11-16T15:13:27.013Z,99256.19
2022-11-16T15:16:20.786Z,99250.58
2022-11-16T15:19:02.001Z,99257.16
2022-11-16T15:21:35.015Z,99254.55
2022-11-16T15:24:29.309Z,99250.99
2022-11-16T15:26:45.632Z,99259.84
2022-11-16T15:29:20.734Z,99251.55
2022-11-16T15:31:53.970Z,99251.05
2022-11-16T15:34:27.218Z,99253.97
2022-11-16T15:37:01.425Z,99248.70
2022-11-16T15:39:36.749Z,99242.53
2022-11-16T15:42:13.930Z,99238.55
2022-11-16T15:44:46.776Z,99219.71
2022-11-16T15:47:19.753Z,99218.24
2022-11-16T15:49:53.391Z,99217.78
2022-11-16T15:52:47.669Z,99213.30
2022-11-16T15:55:32.069Z,99224.41
2022-11-16T15:58:25.415Z,99226.03
2022-11-16T16:01:00.367Z,99229.77
2022-11-16T16:03:35.223Z,99232.19
2022-11-16T16:06:10.166Z,99232.11
2022-11-16T16:08:43.474Z,99235.92
2022-11-16T16:11:26.791Z,99235.75
2022-11-16T16:14:04.859Z,99228.38
2022-11-16T16:16:42.038Z,99225.69
2022-11-16T16:19:42.755Z,99223.89
2022-11-16T16:22:31.155Z,99223.81
2022-11-16T16:25:06.903Z,99219.75
2022-11-16T16:27:41.664Z,99216.98
2022-11-16T16:30:16.761Z,99218.28
2022-11-16T16:32:51.649Z,99215.13
2022-11-16T16:35:27.114Z,99218.02
2022-11-16T16:38:02.583Z,99221.91
2022-11-16T16:40:36.066Z,99219.83
2022-11-16T16:43:09.041Z,99221.70
2022-11-16T16:45:44.202Z,99218.20
2022-11-16T16:48:18.567Z,99212.83
2022-11-16T16:50:51.592Z,99207.50
2022-11-16T16:53:24.574Z,99209.19
2022-11-16T16:55:57.628Z,99211.31
2022-11-16T16:58:30.645Z,99204.83
2022-11-16T17:01:06.522Z,99202.23
2022-11-16T17:03:41.318Z,99197.50
2022-11-16T17:06:14.306Z,99207.89
2022-11-16T17:08:48.060Z,99209.93
2022-11-16T17:11:21.009Z,99208.93
2022-11-16T17:13:53.869Z,99204.40
2022-11-16T17:16:26.837Z,99199.59
2022-11-16T17:18:59.771Z,99197.41
2022-11-16T17:21:34.188Z,99202.19
2022-11-16T17:24:07.499Z,99195.78
2022-11-16T17:26:41.374Z,99192.47
2022-11-16T17:29:14.471Z,99187.37
2022-11-16T17:31:49.559Z,99181.77
2022-11-16T17:34:21.741Z,99179.91
2022-11-16T17:36:56.241Z,99175.35
2022-11-16T17:39:28.224Z,99172.88
2022-11-16T17:42:01.083Z,99168.48
2022-11-16T17:44:34.434Z,99173.51
2022-11-16T17:47:07.943Z,99184.05
2022-11-16T17:49:41.094Z,99180.78
2022-11-16T17:52:14.271Z,99180.86
2022-11-16T17:54:47.110Z,99178.18
2022-11-16T17:57:20.280Z,99182.23
2022-11-16T17:59:53.191Z,99191.64
2022-11-16T18:02:26.759Z,99176.95
2022-11-16T18:04:59.686Z,99176.16
2022-11-16T18:07:33.892Z,99168.29
2022-11-16T18:10:08.150Z,99166.41
2022-11-16T18:12:41.268Z,99165.44
2022-11-16T18:15:27.961Z,99158.45
2022-11-16T18:17:49.575Z,99157.33
2022-11-16T18:20:24.126Z,99152.23
2022-11-16T18:22:58.300Z,99157.91
2022-11-16T18:25:31.315Z,99151.72
2022-11-16T18:28:04.409Z,99151.72
2022-11-16T18:30:38.966Z,99146.16
2022-11-16T18:33:14.931Z,99146.16
2022-11-16T18:35:47.717Z,99140.05
2022-11-16T18:38:20.607Z,99133.09
2022-11-16T18:41:19.516Z,99131.39
2022-11-16T18:43:56.040Z,99128.38
2022-11-16T18:46:31.586Z,99130.59
2022-11-16T18:49:05.189Z,99125.78
2022-11-16T18:51:39.253Z,99133.56
2022-11-16T18:54:12.360Z,99127.00
2022-11-16T18:56:45.171Z,99124.02
2022-11-16T18:59:19.012Z,99124.58
2022-11-16T19:01:51.779Z,99121.27
2022-11-16T19:04:25.037Z,99116.16
2022-11-16T19:06:57.906Z,99117.80
2022-11-16T19:09:30.908Z,99118.50
2022-11-16T19:12:03.673Z,99112.59
2022-11-16T19:14:37.510Z,99113.47
2022-11-16T19:17:10.611Z,99111.44
2022-11-16T19:19:43.912Z,99110.64
2022-11-16T19:22:16.620Z,99107.16
2022-11-16T19:24:50.012Z,99096.28
2022-11-16T19:27:22.807Z,99088.00
2022-11-16T19:29:55.696Z,99084.06
2022-11-16T19:32:28.572Z,99085.57
2022-11-16T19:35:01.536Z,99083.22
2022-11-16T19:37:34.888Z,99090.92
2022-11-16T19:40:09.381Z,99089.53
2022-11-16T19:42:43.711Z,99071.21
2022-11-16T19:45:16.838Z,99076.40
2022-11-16T19:47:49.916Z,99086.19
2022-11-16T19:50:24.454Z,99076.94
2022-11-16T19:52:58.001Z,99069.82
2022-11-16T19:55:31.142Z,99067.14
2022-11-16T19:58:05.890Z,99068.44
2022-11-16T20:00:39.592Z,99068.44
2022-11-16T20:03:12.881Z,99067.23
2022-11-16T20:05:45.893Z,99069.66
2022-11-16T20:08:19.148Z,99060.08
2022-11-16T20:10:51.951Z,99055.31
2022-11-16T20:13:24.865Z,99061.25
2022-11-16T20:15:58.772Z,99055.23
2022-11-16T20:18:33.250Z,99054.97
2022-11-16T20:21:08.644Z,99052.71
2022-11-16T20:23:41.639Z,99044.52
2022-11-16T20:26:15.612Z,99039.13
2022-11-16T20:28:52.011Z,99038.13
2022-11-16T20:31:31.193Z,99051.83
2022-11-16T20:34:08.000Z,99050.48
2022-11-16T20:36:42.656Z,99052.44
2022-11-16T20:39:18.691Z,99053.73
2022-11-16T20:41:52.049Z,99043.69
2022-11-16T20:44:24.987Z,99041.56
2022-11-16T20:46:58.828Z,99043.92
2022-11-16T20:49:31.731Z,99039.82
2022-11-16T20:52:04.892Z,99029.53
2022-11-16T20:54:38.159Z,99022.05
2022-11-16T20:57:11.931Z,99024.73
2022-11-16T20:59:45.665Z,99018.34
2022-11-16T21:02:18.697Z,99017.55
2022-11-16T21:04:54.851Z,99019.80
2022-11-16T21:07:26.543Z,99013.73
2022-11-16T21:10:17.704Z,99011.94
2022-11-16T21:13:09.311Z,99008.55
2022-11-16T21:15:42.014Z,99013.73
2022-11-16T21:18:15.001Z,99005.55
2022-11-16T21:20:49.045Z,99008.38
2022-11-16T21:23:22.200Z,99006.67
2022-11-16T21:25:55.238Z,98998.59
2022-11-16T21:28:28.128Z,98999.56
2022-11-16T21:31:06.774Z,99000.45
2022-11-16T21:33:39.898Z,98993.41
2022-11-16T21:36:16.640Z,98991.03
2022-11-16T21:38:50.409Z,98987.56
2022-11-16T21:41:24.788Z,98980.66
2022-11-16T21:43:58.569Z,98979.95
2022-11-16T21:46:31.582Z,98970.08
2022-11-16T21:49:05.162Z,98978.41
2022-11-16T21:51:38.346Z,98967.66
2022-11-16T21:54:11.087Z,98971.46
2022-11-16T21:56:44.553Z,98967.08
2022-11-16T21:59:17.794Z,98961.89
2022-11-16T22:02:02.526Z,98958.88
2022-11-16T22:04:55.403Z,98953.78
2022-11-16T22:07:36.999Z,98948.05
2022-11-16T22:10:12.333Z,98951.19
2022-11-16T22:12:45.276Z,98947.46
2022-11-16T22:15:18.190Z,98948.84
2022-11-16T22:17:51.721Z,98942.77
2022-11-16T22:20:25.419Z,98934.11
2022-11-16T22:22:58.344Z,98936.29
2022-11-16T22:25:31.977Z,98932.06
2022-11-16T22:28:20.151Z,98931.77
2022-11-16T22:30:39.627Z,98924.95
2022-11-16T22:33:12.677Z,98923.31
2022-11-16T22:35:47.319Z,98912.64
2022-11-16T22:38:20.216Z,98920.16
2022-11-16T22:40:55.553Z,98913.77
2022-11-16T22:43:31.395Z,98912.20
2022-11-16T22:46:07.093Z,98910.99
2022-11-16T22:48:43.582Z,98901.58
2022-11-16T22:51:28.440Z,98903.37
2022-11-16T22:54:05.172Z,98901.11
2022-11-16T22:56:38.390Z,98893.64
2022-11-16T22:59:11.118Z,98896.65
2022-11-16T23:01:44.723Z,98890.16
2022-11-16T23:04:18.138Z,98894.94
2022-11-16T23:06:51.274Z,98889.52
2022-11-16T23:09:24.727Z,98886.67
2022-11-16T23:12:15.821Z,98884.23
2022-11-16T23:15:06.346Z,98884.47
2022-11-16T23:17:39.771Z,98885.42
2022-11-16T23:20:30.980Z,98885.16
2022-11-16T23:23:22.217Z,98882.84
2022-11-16T23:26:13.421Z,98881.77
2022-11-16T23:28:46.243Z,98885.28
2022-11-16T23:31:19.074Z,98881.85
2022-11-16T23:33:51.911Z,98876.81
2022-11-16T23:36:24.710Z,98881.70
2022-11-16T23:38:57.989Z,98880.41
2022-11-16T23:41:49.152Z,98878.95
2022-11-16T23:44:22.547Z,98873.00
2022-11-16T23:46:55.511Z,98870.56
2022-11-16T23:49:28.450Z,98870.37
2022-11-16T23:52:01.206Z,98867.05
2022-11-16T23:54:34.441Z,98863.65
2022-11-16T23:57:08.085Z,98865.48
2022-11-16T23:59:41.172Z,98861.28
